sensor_id;sensor_type;location;lat;lon;timestamp;temperature;humidity
55828;DHT22;41758;51.992;5.890;2023-03-01T00:01:30;5.80;50.50
55828;DHT22;41758;51.992;5.890;2023-03-01T00:03:57;5.80;50.40
55828;DHT22;41758;51.992;5.890;2023-03-01T00:06:23;5.80;49.50
55828;DHT22;41758;51.992;5.890;2023-03-01T00:08:49;5.80;48.50
55828;DHT22;41758;51.992;5.890;2023-03-01T00:13:47;5.70;50.30
55828;DHT22;41758;51.992;5.890;2023-03-01T00:16:37;5.70;49.90
55828;DHT22;41758;51.992;5.890;2023-03-01T00:19:15;5.70;50.90
55828;DHT22;41758;51.992;5.890;2023-03-01T00:21:41;5.70;50.40
55828;DHT22;41758;51.992;5.890;2023-03-01T00:24:07;5.70;50.90
55828;DHT22;41758;51.992;5.890;2023-03-01T00:26:33;5.70;50.90
55828;DHT22;41758;51.992;5.890;2023-03-01T00:29:00;5.80;50.70
55828;DHT22;41758;51.992;5.890;2023-03-01T00:31:30;5.80;50.80
55828;DHT22;41758;51.992;5.890;2023-03-01T00:34:00;5.80;50.90
55828;DHT22;41758;51.992;5.890;2023-03-01T00:36:28;5.90;50.70
55828;DHT22;41758;51.992;5.890;2023-03-01T00:38:55;5.90;49.20
55828;DHT22;41758;51.992;5.890;2023-03-01T00:41:21;5.80;49.90
55828;DHT22;41758;51.992;5.890;2023-03-01T00:43:49;5.80;50.60
55828;DHT22;41758;51.992;5.890;2023-03-01T00:46:17;5.80;50.70
55828;DHT22;41758;51.992;5.890;2023-03-01T00:48:43;5.80;50.50
55828;DHT22;41758;51.992;5.890;2023-03-01T00:51:13;5.80;50.00
55828;DHT22;41758;51.992;5.890;2023-03-01T00:53:39;5.80;50.70
55828;DHT22;41758;51.992;5.890;2023-03-01T00:56:06;5.80;50.80
55828;DHT22;41758;51.992;5.890;2023-03-01T00:58:33;5.70;50.70
55828;DHT22;41758;51.992;5.890;2023-03-01T01:00:59;5.80;50.70
55828;DHT22;41758;51.992;5.890;2023-03-01T01:03:27;5.80;50.90
55828;DHT22;41758;51.992;5.890;2023-03-01T01:05:53;5.70;50.80
55828;DHT22;41758;51.992;5.890;2023-03-01T01:08:20;5.80;50.80
55828;DHT22;41758;51.992;5.890;2023-03-01T01:10:46;5.80;51.10
55828;DHT22;41758;51.992;5.890;2023-03-01T01:13:13;5.80;50.90
55828;DHT22;41758;51.992;5.890;2023-03-01T01:15:40;5.80;50.60
55828;DHT22;41758;51.992;5.890;2023-03-01T01:18:06;5.80;50.40
55828;DHT22;41758;51.992;5.890;2023-03-01T01:20:32;5.80;50.70
55828;DHT22;41758;51.992;5.890;2023-03-01T01:22:58;5.80;50.70
55828;DHT22;41758;51.992;5.890;2023-03-01T01:25:24;5.80;50.30
55828;DHT22;41758;51.992;5.890;2023-03-01T01:27:53;5.70;50.80
55828;DHT22;41758;51.992;5.890;2023-03-01T01:30:19;5.80;50.30
55828;DHT22;41758;51.992;5.890;2023-03-01T01:32:45;5.70;50.50
55828;DHT22;41758;51.992;5.890;2023-03-01T01:35:11;5.70;49.90
55828;DHT22;41758;51.992;5.890;2023-03-01T01:37:37;5.70;49.80
55828;DHT22;41758;51.992;5.890;2023-03-01T01:40:03;5.60;48.60
55828;DHT22;41758;51.992;5.890;2023-03-01T01:42:30;5.60;49.50
55828;DHT22;41758;51.992;5.890;2023-03-01T01:45:24;5.50;49.60
55828;DHT22;41758;51.992;5.890;2023-03-01T01:47:51;5.40;49.40
55828;DHT22;41758;51.992;5.890;2023-03-01T01:50:18;5.40;51.00
55828;DHT22;41758;51.992;5.890;2023-03-01T01:52:45;5.40;51.10
55828;DHT22;41758;51.992;5.890;2023-03-01T01:55:16;5.30;50.40
55828;DHT22;41758;51.992;5.890;2023-03-01T01:57:54;5.30;50.80
55828;DHT22;41758;51.992;5.890;2023-03-01T02:00:27;5.30;51.40
55828;DHT22;41758;51.992;5.890;2023-03-01T02:03:11;5.30;50.60
55828;DHT22;41758;51.992;5.890;2023-03-01T02:05:49;5.30;49.70
55828;DHT22;41758;51.992;5.890;2023-03-01T02:08:19;5.20;49.80
55828;DHT22;41758;51.992;5.890;2023-03-01T02:10:45;5.20;51.00
55828;DHT22;41758;51.992;5.890;2023-03-01T02:13:12;5.20;49.50
55828;DHT22;41758;51.992;5.890;2023-03-01T02:15:39;5.20;50.00
55828;DHT22;41758;51.992;5.890;2023-03-01T02:18:07;5.20;50.60
55828;DHT22;41758;51.992;5.890;2023-03-01T02:23:07;5.10;50.00
55828;DHT22;41758;51.992;5.890;2023-03-01T02:25:51;5.10;52.00
55828;DHT22;41758;51.992;5.890;2023-03-01T02:28:23;5.10;50.90
55828;DHT22;41758;51.992;5.890;2023-03-01T02:30:50;5.10;51.10
55828;DHT22;41758;51.992;5.890;2023-03-01T02:33:38;5.10;49.60
55828;DHT22;41758;51.992;5.890;2023-03-01T02:36:07;5.00;51.40
55828;DHT22;41758;51.992;5.890;2023-03-01T02:38:33;5.00;51.00
55828;DHT22;41758;51.992;5.890;2023-03-01T02:41:00;5.00;51.20
55828;DHT22;41758;51.992;5.890;2023-03-01T02:43:30;5.00;51.30
55828;DHT22;41758;51.992;5.890;2023-03-01T02:45:59;5.00;51.90
55828;DHT22;41758;51.992;5.890;2023-03-01T02:48:25;5.00;51.90
55828;DHT22;41758;51.992;5.890;2023-03-01T02:53:45;5.00;51.90
55828;DHT22;41758;51.992;5.890;2023-03-01T02:56:12;5.00;51.50
55828;DHT22;41758;51.992;5.890;2023-03-01T02:58:41;4.90;51.90
55828;DHT22;41758;51.992;5.890;2023-03-01T03:01:12;4.90;52.60
55828;DHT22;41758;51.992;5.890;2023-03-01T03:03:41;4.90;50.90
55828;DHT22;41758;51.992;5.890;2023-03-01T03:06:07;4.90;52.00
55828;DHT22;41758;51.992;5.890;2023-03-01T03:08:33;4.80;50.90
55828;DHT22;41758;51.992;5.890;2023-03-01T03:10:59;4.80;50.60
55828;DHT22;41758;51.992;5.890;2023-03-01T03:13:25;4.80;52.00
55828;DHT22;41758;51.992;5.890;2023-03-01T03:15:55;4.80;51.40
55828;DHT22;41758;51.992;5.890;2023-03-01T03:18:22;4.80;52.00
55828;DHT22;41758;51.992;5.890;2023-03-01T03:20:48;4.80;52.60
55828;DHT22;41758;51.992;5.890;2023-03-01T03:23:19;4.80;51.40
55828;DHT22;41758;51.992;5.890;2023-03-01T03:25:48;4.80;51.20
55828;DHT22;41758;51.992;5.890;2023-03-01T03:28:14;4.70;52.70
55828;DHT22;41758;51.992;5.890;2023-03-01T03:30:41;4.70;51.60
55828;DHT22;41758;51.992;5.890;2023-03-01T03:33:08;4.70;52.20
55828;DHT22;41758;51.992;5.890;2023-03-01T03:35:39;4.70;51.10
55828;DHT22;41758;51.992;5.890;2023-03-01T03:38:08;4.70;51.40
55828;DHT22;41758;51.992;5.890;2023-03-01T03:40:45;4.70;51.50
55828;DHT22;41758;51.992;5.890;2023-03-01T03:43:20;4.60;51.50
55828;DHT22;41758;51.992;5.890;2023-03-01T03:45:49;4.60;53.00
55828;DHT22;41758;51.992;5.890;2023-03-01T03:48:16;4.60;52.80
55828;DHT22;41758;51.992;5.890;2023-03-01T03:50:46;4.70;53.60
55828;DHT22;41758;51.992;5.890;2023-03-01T03:53:12;4.70;53.90
55828;DHT22;41758;51.992;5.890;2023-03-01T03:55:38;4.80;53.70
55828;DHT22;41758;51.992;5.890;2023-03-01T03:58:09;4.80;52.80
55828;DHT22;41758;51.992;5.890;2023-03-01T04:00:40;4.90;52.50
55828;DHT22;41758;51.992;5.890;2023-03-01T04:03:07;4.90;53.10
55828;DHT22;41758;51.992;5.890;2023-03-01T04:05:33;4.80;53.10
55828;DHT22;41758;51.992;5.890;2023-03-01T04:08:00;4.90;53.60
55828;DHT22;41758;51.992;5.890;2023-03-01T04:10:31;4.90;53.40
55828;DHT22;41758;51.992;5.890;2023-03-01T04:12:57;4.90;52.70
55828;DHT22;41758;51.992;5.890;2023-03-01T04:15:24;5.00;52.90
55828;DHT22;41758;51.992;5.890;2023-03-01T04:17:52;5.00;53.10
55828;DHT22;41758;51.992;5.890;2023-03-01T04:20:23;5.00;53.50
55828;DHT22;41758;51.992;5.890;2023-03-01T04:22:56;5.00;53.10
55828;DHT22;41758;51.992;5.890;2023-03-01T04:25:23;5.00;53.00
55828;DHT22;41758;51.992;5.890;2023-03-01T04:27:51;5.00;52.60
55828;DHT22;41758;51.992;5.890;2023-03-01T04:30:17;5.00;53.40
55828;DHT22;41758;51.992;5.890;2023-03-01T04:32:43;5.00;53.10
55828;DHT22;41758;51.992;5.890;2023-03-01T04:35:09;5.00;52.70
55828;DHT22;41758;51.992;5.890;2023-03-01T04:37:35;5.00;52.70
55828;DHT22;41758;51.992;5.890;2023-03-01T04:40:02;5.00;53.10
55828;DHT22;41758;51.992;5.890;2023-03-01T04:42:38;5.00;52.90
55828;DHT22;41758;51.992;5.890;2023-03-01T04:45:04;5.00;52.20
55828;DHT22;41758;51.992;5.890;2023-03-01T04:47:43;5.00;51.30
55828;DHT22;41758;51.992;5.890;2023-03-01T04:50:15;4.90;52.40
55828;DHT22;41758;51.992;5.890;2023-03-01T04:52:41;4.90;53.50
55828;DHT22;41758;51.992;5.890;2023-03-01T04:55:08;4.90;53.50
55828;DHT22;41758;51.992;5.890;2023-03-01T04:57:33;4.90;52.10
55828;DHT22;41758;51.992;5.890;2023-03-01T04:59:59;4.90;52.30
55828;DHT22;41758;51.992;5.890;2023-03-01T05:02:25;4.90;52.80
55828;DHT22;41758;51.992;5.890;2023-03-01T05:04:51;4.90;51.60
55828;DHT22;41758;51.992;5.890;2023-03-01T05:07:17;4.80;53.50
55828;DHT22;41758;51.992;5.890;2023-03-01T05:09:48;4.80;53.20
55828;DHT22;41758;51.992;5.890;2023-03-01T05:12:14;4.80;53.60
55828;DHT22;41758;51.992;5.890;2023-03-01T05:14:41;4.80;53.60
55828;DHT22;41758;51.992;5.890;2023-03-01T05:17:07;4.80;53.70
55828;DHT22;41758;51.992;5.890;2023-03-01T05:19:33;4.80;53.80
55828;DHT22;41758;51.992;5.890;2023-03-01T05:21:59;4.90;53.00
55828;DHT22;41758;51.992;5.890;2023-03-01T05:24:31;4.80;53.30
55828;DHT22;41758;51.992;5.890;2023-03-01T05:27:02;4.90;53.70
55828;DHT22;41758;51.992;5.890;2023-03-01T05:29:30;4.90;53.30
55828;DHT22;41758;51.992;5.890;2023-03-01T05:31:58;4.80;53.10
55828;DHT22;41758;51.992;5.890;2023-03-01T05:34:30;4.80;53.40
55828;DHT22;41758;51.992;5.890;2023-03-01T05:36:56;4.80;53.70
55828;DHT22;41758;51.992;5.890;2023-03-01T05:39:24;4.80;53.80
55828;DHT22;41758;51.992;5.890;2023-03-01T05:41:56;4.80;54.10
55828;DHT22;41758;51.992;5.890;2023-03-01T05:44:22;4.80;52.30
55828;DHT22;41758;51.992;5.890;2023-03-01T05:46:48;4.80;51.80
55828;DHT22;41758;51.992;5.890;2023-03-01T05:49:14;4.70;52.00
55828;DHT22;41758;51.992;5.890;2023-03-01T05:51:40;4.60;51.60
55828;DHT22;41758;51.992;5.890;2023-03-01T05:54:07;4.60;52.90
55828;DHT22;41758;51.992;5.890;2023-03-01T05:56:34;4.60;52.80
55828;DHT22;41758;51.992;5.890;2023-03-01T05:59:00;4.50;53.60
55828;DHT22;41758;51.992;5.890;2023-03-01T06:01:26;4.50;53.70
55828;DHT22;41758;51.992;5.890;2023-03-01T06:03:52;4.50;54.40
55828;DHT22;41758;51.992;5.890;2023-03-01T06:06:18;4.50;54.80
55828;DHT22;41758;51.992;5.890;2023-03-01T06:08:43;4.50;53.40
55828;DHT22;41758;51.992;5.890;2023-03-01T06:11:09;4.50;52.90
55828;DHT22;41758;51.992;5.890;2023-03-01T06:13:35;4.50;54.80
55828;DHT22;41758;51.992;5.890;2023-03-01T06:16:06;4.50;54.00
55828;DHT22;41758;51.992;5.890;2023-03-01T06:18:32;4.50;53.50
55828;DHT22;41758;51.992;5.890;2023-03-01T06:20:58;4.50;52.50
55828;DHT22;41758;51.992;5.890;2023-03-01T06:23:24;4.40;52.50
55828;DHT22;41758;51.992;5.890;2023-03-01T06:25:50;4.40;53.30
55828;DHT22;41758;51.992;5.890;2023-03-01T06:28:16;4.30;52.40
55828;DHT22;41758;51.992;5.890;2023-03-01T06:30:42;4.30;52.90
55828;DHT22;41758;51.992;5.890;2023-03-01T06:33:08;4.30;53.10
55828;DHT22;41758;51.992;5.890;2023-03-01T06:35:34;4.30;53.00
55828;DHT22;41758;51.992;5.890;2023-03-01T06:38:01;4.20;53.00
55828;DHT22;41758;51.992;5.890;2023-03-01T06:40:28;4.20;53.00
55828;DHT22;41758;51.992;5.890;2023-03-01T06:42:54;4.20;53.50
55828;DHT22;41758;51.992;5.890;2023-03-01T06:45:20;4.20;53.50
55828;DHT22;41758;51.992;5.890;2023-03-01T06:47:46;4.20;53.40
55828;DHT22;41758;51.992;5.890;2023-03-01T06:50:13;4.10;53.50
55828;DHT22;41758;51.992;5.890;2023-03-01T06:52:40;4.10;53.60
55828;DHT22;41758;51.992;5.890;2023-03-01T06:55:06;4.10;54.40
55828;DHT22;41758;51.992;5.890;2023-03-01T06:57:32;4.10;54.00
55828;DHT22;41758;51.992;5.890;2023-03-01T06:59:58;4.10;53.80
55828;DHT22;41758;51.992;5.890;2023-03-01T07:02:24;4.10;54.70
55828;DHT22;41758;51.992;5.890;2023-03-01T07:04:50;4.20;55.80
55828;DHT22;41758;51.992;5.890;2023-03-01T07:07:17;4.20;54.00
55828;DHT22;41758;51.992;5.890;2023-03-01T07:09:44;4.20;54.10
55828;DHT22;41758;51.992;5.890;2023-03-01T07:12:10;4.20;54.70
55828;DHT22;41758;51.992;5.890;2023-03-01T07:14:36;4.20;55.20
55828;DHT22;41758;51.992;5.890;2023-03-01T07:17:02;4.20;54.20
55828;DHT22;41758;51.992;5.890;2023-03-01T07:19:28;4.30;54.00
55828;DHT22;41758;51.992;5.890;2023-03-01T07:21:53;4.30;55.20
55828;DHT22;41758;51.992;5.890;2023-03-01T07:24:21;4.30;55.30
55828;DHT22;41758;51.992;5.890;2023-03-01T07:26:50;4.40;55.50
55828;DHT22;41758;51.992;5.890;2023-03-01T07:29:16;4.40;54.20
55828;DHT22;41758;51.992;5.890;2023-03-01T07:31:43;4.40;54.90
55828;DHT22;41758;51.992;5.890;2023-03-01T07:34:09;4.50;55.70
55828;DHT22;41758;51.992;5.890;2023-03-01T07:36:36;4.60;55.00
55828;DHT22;41758;51.992;5.890;2023-03-01T07:39:02;4.60;55.70
55828;DHT22;41758;51.992;5.890;2023-03-01T07:41:29;4.70;54.80
55828;DHT22;41758;51.992;5.890;2023-03-01T07:43:55;4.70;54.90
55828;DHT22;41758;51.992;5.890;2023-03-01T07:46:21;4.80;53.50
55828;DHT22;41758;51.992;5.890;2023-03-01T07:48:47;4.80;53.60
55828;DHT22;41758;51.992;5.890;2023-03-01T07:51:13;4.80;53.70
55828;DHT22;41758;51.992;5.890;2023-03-01T07:53:39;4.90;54.20
55828;DHT22;41758;51.992;5.890;2023-03-01T07:56:12;4.90;53.80
55828;DHT22;41758;51.992;5.890;2023-03-01T07:58:40;4.90;54.70
55828;DHT22;41758;51.992;5.890;2023-03-01T08:01:08;5.00;54.40
55828;DHT22;41758;51.992;5.890;2023-03-01T08:03:34;5.00;53.80
55828;DHT22;41758;51.992;5.890;2023-03-01T08:06:02;5.00;54.50
55828;DHT22;41758;51.992;5.890;2023-03-01T08:08:28;5.10;53.40
55828;DHT22;41758;51.992;5.890;2023-03-01T08:10:58;5.20;53.00
55828;DHT22;41758;51.992;5.890;2023-03-01T08:13:25;5.20;54.80
55828;DHT22;41758;51.992;5.890;2023-03-01T08:15:51;5.30;54.60
55828;DHT22;41758;51.992;5.890;2023-03-01T08:18:17;5.30;53.80
55828;DHT22;41758;51.992;5.890;2023-03-01T08:20:44;5.40;53.10
55828;DHT22;41758;51.992;5.890;2023-03-01T08:23:10;5.40;52.70
55828;DHT22;41758;51.992;5.890;2023-03-01T08:25:36;5.50;53.40
55828;DHT22;41758;51.992;5.890;2023-03-01T08:28:02;5.60;54.40
55828;DHT22;41758;51.992;5.890;2023-03-01T08:30:28;5.60;53.20
55828;DHT22;41758;51.992;5.890;2023-03-01T08:32:54;5.60;51.90
55828;DHT22;41758;51.992;5.890;2023-03-01T08:35:21;5.80;52.50
55828;DHT22;41758;51.992;5.890;2023-03-01T08:37:47;5.80;52.60
55828;DHT22;41758;51.992;5.890;2023-03-01T08:40:13;5.80;52.20
55828;DHT22;41758;51.992;5.890;2023-03-01T08:42:40;5.90;52.00
55828;DHT22;41758;51.992;5.890;2023-03-01T08:45:09;6.00;52.90
55828;DHT22;41758;51.992;5.890;2023-03-01T08:47:35;6.00;52.00
55828;DHT22;41758;51.992;5.890;2023-03-01T08:50:01;6.10;52.00
55828;DHT22;41758;51.992;5.890;2023-03-01T08:52:27;6.20;52.00
55828;DHT22;41758;51.992;5.890;2023-03-01T08:54:53;6.20;51.90
55828;DHT22;41758;51.992;5.890;2023-03-01T08:57:19;6.30;50.70
55828;DHT22;41758;51.992;5.890;2023-03-01T08:59:44;6.30;50.50
55828;DHT22;41758;51.992;5.890;2023-03-01T09:02:16;6.30;50.70
55828;DHT22;41758;51.992;5.890;2023-03-01T09:04:43;6.40;49.80
55828;DHT22;41758;51.992;5.890;2023-03-01T09:07:10;6.50;49.10
55828;DHT22;41758;51.992;5.890;2023-03-01T09:09:36;6.60;50.70
55828;DHT22;41758;51.992;5.890;2023-03-01T09:12:03;6.60;50.40
55828;DHT22;41758;51.992;5.890;2023-03-01T09:14:29;6.70;49.70
55828;DHT22;41758;51.992;5.890;2023-03-01T09:16:55;6.80;48.90
55828;DHT22;41758;51.992;5.890;2023-03-01T09:19:21;6.80;48.90
55828;DHT22;41758;51.992;5.890;2023-03-01T09:21:46;6.90;49.40
55828;DHT22;41758;51.992;5.890;2023-03-01T09:24:21;7.00;48.50
55828;DHT22;41758;51.992;5.890;2023-03-01T09:26:47;7.00;48.70
55828;DHT22;41758;51.992;5.890;2023-03-01T09:29:14;7.10;49.30
55828;DHT22;41758;51.992;5.890;2023-03-01T09:31:40;7.10;47.40
55828;DHT22;41758;51.992;5.890;2023-03-01T09:34:07;7.20;48.20
55828;DHT22;41758;51.992;5.890;2023-03-01T09:36:34;7.30;46.70
55828;DHT22;41758;51.992;5.890;2023-03-01T09:39:00;7.40;47.30
55828;DHT22;41758;51.992;5.890;2023-03-01T09:41:42;7.40;46.30
55828;DHT22;41758;51.992;5.890;2023-03-01T09:44:21;7.50;45.80
55828;DHT22;41758;51.992;5.890;2023-03-01T09:46:48;7.60;46.00
55828;DHT22;41758;51.992;5.890;2023-03-01T09:49:20;7.70;44.80
55828;DHT22;41758;51.992;5.890;2023-03-01T09:52:00;7.80;44.80
55828;DHT22;41758;51.992;5.890;2023-03-01T09:54:28;7.90;44.00
55828;DHT22;41758;51.992;5.890;2023-03-01T10:00:13;8.00;43.60
55828;DHT22;41758;51.992;5.890;2023-03-01T10:05:27;8.20;44.20
55828;DHT22;41758;51.992;5.890;2023-03-01T10:10:44;8.30;43.70
55828;DHT22;41758;51.992;5.890;2023-03-01T10:16:13;8.60;43.30
55828;DHT22;41758;51.992;5.890;2023-03-01T10:18:41;8.70;43.00
55828;DHT22;41758;51.992;5.890;2023-03-01T10:21:15;8.90;42.40
55828;DHT22;41758;51.992;5.890;2023-03-01T10:23:43;9.10;41.90
55828;DHT22;41758;51.992;5.890;2023-03-01T10:26:27;9.30;41.60
55828;DHT22;41758;51.992;5.890;2023-03-01T10:29:11;9.30;41.40
55828;DHT22;41758;51.992;5.890;2023-03-01T10:31:46;9.50;41.10
55828;DHT22;41758;51.992;5.890;2023-03-01T10:37:01;9.80;40.30
55828;DHT22;41758;51.992;5.890;2023-03-01T10:39:27;10.00;40.10
55828;DHT22;41758;51.992;5.890;2023-03-01T10:44:42;10.20;40.40
55828;DHT22;41758;51.992;5.890;2023-03-01T10:47:27;10.60;41.10
55828;DHT22;41758;51.992;5.890;2023-03-01T10:52:21;11.40;38.80
55828;DHT22;41758;51.992;5.890;2023-03-01T10:55:38;11.80;37.90
55828;DHT22;41758;51.992;5.890;2023-03-01T10:57:41;12.10;38.00
55828;DHT22;41758;51.992;5.890;2023-03-01T11:02:51;12.00;36.70
55828;DHT22;41758;51.992;5.890;2023-03-01T11:05:27;12.00;37.10
55828;DHT22;41758;51.992;5.890;2023-03-01T11:08:00;12.00;36.40
55828;DHT22;41758;51.992;5.890;2023-03-01T11:12:53;11.90;37.00
55828;DHT22;41758;51.992;5.890;2023-03-01T11:15:31;11.70;36.90
55828;DHT22;41758;51.992;5.890;2023-03-01T11:17:57;11.40;38.30
55828;DHT22;41758;51.992;5.890;2023-03-01T11:20:35;11.50;38.20
55828;DHT22;41758;51.992;5.890;2023-03-01T11:23:05;11.60;37.50
55828;DHT22;41758;51.992;5.890;2023-03-01T11:25:36;11.80;37.50
55828;DHT22;41758;51.992;5.890;2023-03-01T11:28:05;11.90;37.90
55828;DHT22;41758;51.992;5.890;2023-03-01T11:30:37;12.10;36.60
55828;DHT22;41758;51.992;5.890;2023-03-01T11:35:37;12.50;37.40
55828;DHT22;41758;51.992;5.890;2023-03-01T11:38:23;13.00;36.50
55828;DHT22;41758;51.992;5.890;2023-03-01T11:43:58;13.70;35.60
55828;DHT22;41758;51.992;5.890;2023-03-01T11:52:20;14.70;34.20
55828;DHT22;41758;51.992;5.890;2023-03-01T12:11:23;17.20;31.40
55828;DHT22;41758;51.992;5.890;2023-03-01T12:14:01;17.80;30.60
55828;DHT22;41758;51.992;5.890;2023-03-01T12:20:01;19.20;28.30
55828;DHT22;41758;51.992;5.890;2023-03-01T12:23:03;19.60;28.00
55828;DHT22;41758;51.992;5.890;2023-03-01T12:25:48;20.20;27.80
55828;DHT22;41758;51.992;5.890;2023-03-01T12:33:53;21.40;26.30
55828;DHT22;41758;51.992;5.890;2023-03-01T12:36:32;21.80;25.90
55828;DHT22;41758;51.992;5.890;2023-03-01T12:42:01;22.30;24.80
55828;DHT22;41758;51.992;5.890;2023-03-01T12:44:47;22.80;24.40
55828;DHT22;41758;51.992;5.890;2023-03-01T12:47:58;23.00;24.60
55828;DHT22;41758;51.992;5.890;2023-03-01T12:50:41;23.10;24.10
55828;DHT22;41758;51.992;5.890;2023-03-01T12:53:20;23.20;24.30
55828;DHT22;41758;51.992;5.890;2023-03-01T12:55:47;23.40;24.30
55828;DHT22;41758;51.992;5.890;2023-03-01T12:58:33;23.70;23.90
55828;DHT22;41758;51.992;5.890;2023-03-01T13:06:10;24.60;23.20
55828;DHT22;41758;51.992;5.890;2023-03-01T13:11:20;25.20;22.30
55828;DHT22;41758;51.992;5.890;2023-03-01T13:13:47;25.40;21.60
55828;DHT22;41758;51.992;5.890;2023-03-01T13:19:16;25.80;21.60
55828;DHT22;41758;51.992;5.890;2023-03-01T13:21:43;25.90;21.70
55828;DHT22;41758;51.992;5.890;2023-03-01T13:24:29;26.00;21.20
55828;DHT22;41758;51.992;5.890;2023-03-01T13:27:24;26.10;20.90
55828;DHT22;41758;51.992;5.890;2023-03-01T13:29:59;26.10;21.00
55828;DHT22;41758;51.992;5.890;2023-03-01T13:32:29;26.00;21.30
55828;DHT22;41758;51.992;5.890;2023-03-01T13:37:41;25.30;20.60
55828;DHT22;41758;51.992;5.890;2023-03-01T13:42:54;23.60;21.90
55828;DHT22;41758;51.992;5.890;2023-03-01T13:48:21;21.90;22.90
55828;DHT22;41758;51.992;5.890;2023-03-01T13:50:51;21.00;23.00
55828;DHT22;41758;51.992;5.890;2023-03-01T13:53:20;20.10;24.70
55828;DHT22;41758;51.992;5.890;2023-03-01T13:56:21;19.40;24.70
55828;DHT22;41758;51.992;5.890;2023-03-01T13:58:58;18.80;25.40
55828;DHT22;41758;51.992;5.890;2023-03-01T14:01:29;18.30;26.20
55828;DHT22;41758;51.992;5.890;2023-03-01T14:03:55;17.80;26.80
55828;DHT22;41758;51.992;5.890;2023-03-01T14:06:27;17.40;27.50
55828;DHT22;41758;51.992;5.890;2023-03-01T14:12:37;16.70;28.30
55828;DHT22;41758;51.992;5.890;2023-03-01T14:17:31;16.10;29.30
55828;DHT22;41758;51.992;5.890;2023-03-01T14:20:02;15.80;29.70
55828;DHT22;41758;51.992;5.890;2023-03-01T14:22:34;15.60;30.10
55828;DHT22;41758;51.992;5.890;2023-03-01T14:25:02;15.40;30.20
55828;DHT22;41758;51.992;5.890;2023-03-01T14:27:33;15.30;30.10
55828;DHT22;41758;51.992;5.890;2023-03-01T14:30:03;15.10;29.90
55828;DHT22;41758;51.992;5.890;2023-03-01T14:32:31;15.00;30.70
55828;DHT22;41758;51.992;5.890;2023-03-01T14:34:58;14.80;30.60
55828;DHT22;41758;51.992;5.890;2023-03-01T14:37:33;14.70;31.30
55828;DHT22;41758;51.992;5.890;2023-03-01T14:40:01;14.60;31.90
55828;DHT22;41758;51.992;5.890;2023-03-01T14:42:36;14.60;31.60
55828;DHT22;41758;51.992;5.890;2023-03-01T14:45:04;14.60;31.10
55828;DHT22;41758;51.992;5.890;2023-03-01T14:47:34;14.40;31.60
55828;DHT22;41758;51.992;5.890;2023-03-01T14:50:10;14.30;31.40
55828;DHT22;41758;51.992;5.890;2023-03-01T14:52:42;14.30;32.10
55828;DHT22;41758;51.992;5.890;2023-03-01T14:55:21;14.20;31.40
55828;DHT22;41758;51.992;5.890;2023-03-01T14:57:49;14.10;31.70
55828;DHT22;41758;51.992;5.890;2023-03-01T15:00:24;14.00;31.50
55828;DHT22;41758;51.992;5.890;2023-03-01T15:02:52;14.00;32.10
55828;DHT22;41758;51.992;5.890;2023-03-01T15:05:27;13.90;32.00
55828;DHT22;41758;51.992;5.890;2023-03-01T15:07:55;13.80;31.80
55828;DHT22;41758;51.992;5.890;2023-03-01T15:10:25;13.80;32.20
55828;DHT22;41758;51.992;5.890;2023-03-01T15:12:52;13.70;31.70
55828;DHT22;41758;51.992;5.890;2023-03-01T15:15:33;13.70;32.00
55828;DHT22;41758;51.992;5.890;2023-03-01T15:18:15;13.70;32.10
55828;DHT22;41758;51.992;5.890;2023-03-01T15:20:42;13.70;31.60
55828;DHT22;41758;51.992;5.890;2023-03-01T15:25:46;13.50;32.80
55828;DHT22;41758;51.992;5.890;2023-03-01T15:28:19;13.50;33.10
55828;DHT22;41758;51.992;5.890;2023-03-01T15:30:46;13.50;32.40
55828;DHT22;41758;51.992;5.890;2023-03-01T15:39:00;13.30;32.50
55828;DHT22;41758;51.992;5.890;2023-03-01T15:41:46;13.20;32.10
55828;DHT22;41758;51.992;5.890;2023-03-01T15:44:24;13.10;33.20
55828;DHT22;41758;51.992;5.890;2023-03-01T15:46:50;13.00;33.20
55828;DHT22;41758;51.992;5.890;2023-03-01T15:52:00;12.90;33.60
55828;DHT22;41758;51.992;5.890;2023-03-01T15:54:27;12.80;34.40
55828;DHT22;41758;51.992;5.890;2023-03-01T15:56:53;12.80;34.20
55828;DHT22;41758;51.992;5.890;2023-03-01T15:59:19;12.80;34.30
55828;DHT22;41758;51.992;5.890;2023-03-01T16:01:45;12.80;33.70
55828;DHT22;41758;51.992;5.890;2023-03-01T16:04:15;12.80;33.90
55828;DHT22;41758;51.992;5.890;2023-03-01T16:06:51;12.80;34.30
55828;DHT22;41758;51.992;5.890;2023-03-01T16:09:24;12.80;34.10
55828;DHT22;41758;51.992;5.890;2023-03-01T16:11:51;12.60;33.60
55828;DHT22;41758;51.992;5.890;2023-03-01T16:14:17;12.60;33.70
55828;DHT22;41758;51.992;5.890;2023-03-01T16:16:44;12.50;34.50
55828;DHT22;41758;51.992;5.890;2023-03-01T16:19:10;12.40;33.90
55828;DHT22;41758;51.992;5.890;2023-03-01T16:21:36;12.40;33.40
55828;DHT22;41758;51.992;5.890;2023-03-01T16:24:02;12.30;33.70
55828;DHT22;41758;51.992;5.890;2023-03-01T16:26:28;12.30;33.10
55828;DHT22;41758;51.992;5.890;2023-03-01T16:28:55;12.20;33.30
55828;DHT22;41758;51.992;5.890;2023-03-01T16:31:22;12.10;34.00
55828;DHT22;41758;51.992;5.890;2023-03-01T16:33:48;12.10;33.80
55828;DHT22;41758;51.992;5.890;2023-03-01T16:36:17;12.00;33.30
55828;DHT22;41758;51.992;5.890;2023-03-01T16:38:43;11.90;33.80
55828;DHT22;41758;51.992;5.890;2023-03-01T16:41:17;11.90;35.30
55828;DHT22;41758;51.992;5.890;2023-03-01T16:43:43;11.80;34.00
55828;DHT22;41758;51.992;5.890;2023-03-01T16:46:38;11.80;34.90
55828;DHT22;41758;51.992;5.890;2023-03-01T16:49:09;11.70;34.90
55828;DHT22;41758;51.992;5.890;2023-03-01T16:51:35;11.60;34.50
55828;DHT22;41758;51.992;5.890;2023-03-01T16:54:02;11.50;34.80
55828;DHT22;41758;51.992;5.890;2023-03-01T16:56:29;11.50;34.70
55828;DHT22;41758;51.992;5.890;2023-03-01T16:58:56;11.50;35.60
55828;DHT22;41758;51.992;5.890;2023-03-01T17:01:22;11.40;35.80
55828;DHT22;41758;51.992;5.890;2023-03-01T17:03:51;11.30;36.40
55828;DHT22;41758;51.992;5.890;2023-03-01T17:06:20;11.30;35.90
55828;DHT22;41758;51.992;5.890;2023-03-01T17:08:47;11.20;35.90
55828;DHT22;41758;51.992;5.890;2023-03-01T17:11:16;11.10;36.00
55828;DHT22;41758;51.992;5.890;2023-03-01T17:13:44;11.10;37.10
55828;DHT22;41758;51.992;5.890;2023-03-01T17:16:16;11.00;37.80
55828;DHT22;41758;51.992;5.890;2023-03-01T17:18:42;10.90;36.80
55828;DHT22;41758;51.992;5.890;2023-03-01T17:21:09;10.90;36.90
55828;DHT22;41758;51.992;5.890;2023-03-01T17:23:37;10.80;37.70
55828;DHT22;41758;51.992;5.890;2023-03-01T17:26:04;10.70;38.00
55828;DHT22;41758;51.992;5.890;2023-03-01T17:28:32;10.70;38.50
55828;DHT22;41758;51.992;5.890;2023-03-01T17:30:59;10.60;37.20
55828;DHT22;41758;51.992;5.890;2023-03-01T17:33:25;10.50;38.30
55828;DHT22;41758;51.992;5.890;2023-03-01T17:35:51;10.40;38.00
55828;DHT22;41758;51.992;5.890;2023-03-01T17:38:19;10.40;38.30
55828;DHT22;41758;51.992;5.890;2023-03-01T17:40:45;10.30;38.30
55828;DHT22;41758;51.992;5.890;2023-03-01T17:43:11;10.30;39.10